Terminal Aerodrome Forecast
Issued by NWS

Home | Current Version | Previous Version | Text Only | Print | Product List | Glossary On
Versions: 1 2 3 4 5 6 7 8 9 10 11 12 13
837
FTUS45 KABQ 301736
TAFGUP
TAF
KGUP 301736Z 3018/3118 25010KT P6SM SCT200
     FM302300 26012G20KT P6SM VCTS BKN070CB
     FM310200 33008KT P6SM VCSH BKN070
     FM310500 VRB03KT P6SM BKN080=

USA.gov is the U.S. government's official web portal to all federal, state and local government web resources and services.